Time;durP1;ratioP1;P1;durP2;ratioP2;P2;SDS_P1;SDS_P2;PMS_P1;PMS_P2;Temp;Humidity;BMP_temperature;BMP_pressure;BME280_temperature;BME280_humidity;BME280_pressure;Samples;Min_cycle;Max_cycle;Signal;HPM_P1;HPM_P2
2023/02/10 00:01:21;;;;;;;35.07;28.40;;;;;;;-7.75;100.00;98743.78;5073816;28;20828;-64
2023/02/10 00:03:49;;;;;;;39.53;28.60;;;;;;;-7.82;100.00;98749.94;5068776;28;20466;-63
2023/02/10 00:06:18;;;;;;;39.00;29.63;;;;;;;-7.91;100.00;98757.84;5072204;28;22322;-65
2023/02/10 00:08:47;;;;;;;36.90;27.23;;;;;;;-7.96;100.00;98751.91;5052317;28;20454;-63
2023/02/10 00:11:16;;;;;;;37.23;27.33;;;;;;;-7.94;100.00;98756.16;5024293;28;20502;-65
2023/02/10 00:13:44;;;;;;;31.97;25.53;;;;;;;-8.03;100.00;98749.44;5067155;28;20439;-65
2023/02/10 00:16:14;;;;;;;39.77;29.33;;;;;;;-8.01;100.00;98754.59;5070419;28;20456;-65
2023/02/10 00:18:42;;;;;;;36.60;28.07;;;;;;;-8.04;100.00;98760.63;5071036;28;20490;-65
2023/02/10 00:21:11;;;;;;;38.43;28.17;;;;;;;-8.00;100.00;98756.28;5067828;28;20646;-64
2023/02/10 00:23:38;;;;;;;37.77;28.30;;;;;;;-8.00;100.00;98764.00;5052214;28;20486;-64
2023/02/10 00:26:07;;;;;;;40.27;28.07;;;;;;;-8.00;100.00;98766.56;5017029;28;21214;-65
2023/02/10 00:28:36;;;;;;;36.87;27.43;;;;;;;-8.06;100.00;98762.38;5069018;28;20551;-63
2023/02/10 00:31:06;;;;;;;32.77;26.90;;;;;;;-8.05;100.00;98758.94;5072539;28;20494;-65
2023/02/10 00:33:34;;;;;;;38.00;28.93;;;;;;;-8.03;100.00;98764.06;5071384;28;20483;-63
2023/02/10 00:36:04;;;;;;;37.07;28.23;;;;;;;-8.08;100.00;98766.69;5074731;28;20689;-66
2023/02/10 00:38:32;;;;;;;36.67;27.57;;;;;;;-8.12;100.00;98766.81;5069068;28;20574;-65
2023/02/10 00:41:03;;;;;;;36.27;26.67;;;;;;;-8.14;100.00;98769.41;5004953;28;20896;-65
2023/02/10 00:43:30;;;;;;;39.23;28.63;;;;;;;-8.19;100.00;98766.06;5072523;28;20687;-63
2023/02/10 00:45:59;;;;;;;44.27;30.00;;;;;;;-8.22;100.00;98771.25;5063021;28;20821;-65
2023/02/10 00:48:27;;;;;;;38.07;28.93;;;;;;;-8.23;100.00;98754.97;5072187;28;20436;-64
2023/02/10 00:50:54;;;;;;;34.53;29.00;;;;;;;-8.34;100.00;98746.59;5066945;28;20478;-66
2023/02/10 00:53:22;;;;;;;38.23;27.30;;;;;;;-8.33;100.00;98756.00;5061318;28;21197;-66
2023/02/10 00:55:50;;;;;;;35.50;27.17;;;;;;;-8.25;100.00;98756.72;5001234;28;20487;-64
2023/02/10 00:58:17;;;;;;;35.97;26.80;;;;;;;-8.28;100.00;98761.91;5071793;28;20501;-65
2023/02/10 01:00:45;;;;;;;34.53;26.93;;;;;;;-8.32;100.00;98763.72;5066306;28;20482;-63
2023/02/10 01:03:14;;;;;;;38.30;28.00;;;;;;;-8.43;100.00;98753.63;5074925;28;20542;-65
2023/02/10 01:05:41;;;;;;;37.63;27.87;;;;;;;-8.33;100.00;98758.59;5070873;28;20444;-63
2023/02/10 01:08:09;;;;;;;38.80;28.20;;;;;;;-8.39;100.00;98751.81;5065148;28;20448;-65
2023/02/10 01:10:37;;;;;;;35.90;27.00;;;;;;;-8.32;100.00;98753.44;5049286;28;20448;-63
2023/02/10 01:13:05;;;;;;;35.43;26.53;;;;;;;-8.33;100.00;98756.00;5017141;28;20678;-64
2023/02/10 01:15:33;;;;;;;38.03;27.10;;;;;;;-8.39;100.00;98749.25;5069810;28;20466;-66
2023/02/10 01:18:00;;;;;;;36.63;26.73;;;;;;;-8.49;100.00;98758.03;5072831;28;20739;-67
2023/02/10 01:20:29;;;;;;;33.63;26.00;;;;;;;-8.56;100.00;98762.41;5069674;28;20480;-67
2023/02/10 01:22:57;;;;;;;33.40;26.40;;;;;;;-8.62;100.00;98758.25;5066010;28;20558;-67
2023/02/10 01:25:24;;;;;;;36.10;26.13;;;;;;;-8.64;100.00;98764.28;5049123;28;20453;-66
2023/02/10 01:27:52;;;;;;;36.83;26.57;;;;;;;-8.68;100.00;98758.34;5020421;28;20464;-66
2023/02/10 01:30:20;;;;;;;36.13;27.20;;;;;;;-8.68;100.00;98760.06;5080329;28;20436;-65
2023/02/10 01:32:47;;;;;;;34.87;26.27;;;;;;;-8.69;100.00;98748.94;5069513;28;20667;-65
2023/02/10 01:35:15;;;;;;;36.73;27.70;;;;;;;-8.64;100.00;98748.84;5070974;28;20804;-67
2023/02/10 01:37:44;;;;;;;35.37;26.83;;;;;;;-8.53;100.00;98756.38;5065651;28;20445;-66
2023/02/10 01:40:11;;;;;;;34.67;25.60;;;;;;;-8.61;100.00;98754.81;5071649;28;20525;-66
2023/02/10 01:42:42;;;;;;;34.90;27.57;;;;;;;-8.60;100.00;98756.50;5029210;28;20458;-65
2023/02/10 01:45:18;;;;;;;33.50;25.60;;;;;;;-8.66;100.00;98771.16;5048887;28;20693;-66
2023/02/10 01:47:48;;;;;;;32.83;25.80;;;;;;;-8.75;100.00;98761.88;5066785;28;20655;-65
2023/02/10 01:50:17;;;;;;;35.97;26.87;;;;;;;-8.74;100.00;98764.44;5070348;28;20511;-67
2023/02/10 01:52:46;;;;;;;33.70;27.03;;;;;;;-8.74;100.00;98764.44;5067365;28;20479;-65
2023/02/10 01:55:16;;;;;;;36.67;26.77;;;;;;;-8.77;100.00;98769.63;5072071;28;20764;-67
2023/02/10 01:57:45;;;;;;;37.03;26.60;;;;;;;-8.81;100.00;98767.97;5046841;28;20456;-65
2023/02/10 02:00:14;;;;;;;34.50;26.30;;;;;;;-8.78;100.00;98773.06;5018142;28;20476;-66
2023/02/10 02:02:42;;;;;;;35.70;25.70;;;;;;;-8.77;100.00;98759.34;5061767;28;20479;-64
2023/02/10 02:05:23;;;;;;;35.13;26.47;;;;;;;-8.77;100.00;98758.47;5065059;28;20528;-66
2023/02/10 02:07:52;;;;;;;34.63;26.63;;;;;;;-8.76;100.00;98760.19;5059552;28;20455;-64
2023/02/10 02:10:20;;;;;;;33.53;26.67;;;;;;;-8.78;100.00;98757.66;5066436;28;20444;-64
2023/02/10 02:12:54;;;;;;;38.37;26.23;;;;;;;-8.88;100.00;98767.22;5050860;28;20482;-63
2023/02/10 02:15:28;;;;;;;38.97;28.30;;;;;;;-8.85;100.00;98774.03;5019355;28;21274;-65
2023/02/10 02:18:00;;;;;;;34.00;26.50;;;;;;;-8.84;100.00;98777.44;5062671;28;20726;-64
2023/02/10 02:20:59;;;;;;;34.77;26.83;;;;;;;-8.88;100.00;98766.38;5065462;28;20472;-64
2023/02/10 02:23:49;;;;;;;35.60;27.43;;;;;;;-8.94;100.00;98775.03;5063526;28;20804;-62
2023/02/10 02:26:32;;;;;;;30.87;24.70;;;;;;;-9.05;100.00;98788.00;5065781;28;20975;-63
2023/02/10 02:29:32;;;;;;;37.30;26.77;;;;;;;-9.09;100.00;98788.06;5034847;28;20671;-64
2023/02/10 02:32:03;;;;;;;36.87;26.13;;;;;;;-9.12;100.00;98791.53;5026154;28;21001;-63
2023/02/10 02:34:36;;;;;;;38.83;26.47;;;;;;;-9.18;100.00;98786.50;5067001;28;20438;-65
2023/02/10 02:37:11;;;;;;;35.53;26.33;;;;;;;-9.19;100.00;98792.50;5056579;28;20677;-63
2023/02/10 02:39:38;;;;;;;38.47;27.17;;;;;;;-9.18;100.00;98792.47;5067616;28;20462;-64
2023/02/10 02:42:16;;;;;;;34.90;28.40;;;;;;;-9.26;100.00;98796.88;5067399;28;20452;-64
2023/02/10 02:44:44;;;;;;;34.30;26.77;;;;;;;-9.22;100.00;98805.38;5016504;28;20534;-63
2023/02/10 02:47:19;;;;;;;34.47;26.33;;;;;;;-9.19;100.00;98808.75;5056403;28;20495;-64
2023/02/10 02:49:56;;;;;;;36.13;25.60;;;;;;;-9.22;100.00;98810.53;5063354;28;20436;-63
2023/02/10 02:52:28;;;;;;;40.53;28.20;;;;;;;-9.17;100.00;98819.00;5070136;28;20475;-65
2023/02/10 02:54:59;;;;;;;40.70;27.70;;;;;;;-9.22;100.00;98821.63;5061132;28;21012;-66
2023/02/10 02:57:31;;;;;;;39.30;26.43;;;;;;;-9.24;100.00;98813.09;5071912;28;20882;-66
2023/02/10 03:00:04;;;;;;;35.70;26.90;;;;;;;-9.27;100.00;98813.13;4995911;28;20565;-65
2023/02/10 03:02:34;;;;;;;34.73;26.53;;;;;;;-9.23;100.00;98819.09;5069314;28;20472;-65
2023/02/10 03:05:01;;;;;;;38.93;27.50;;;;;;;-9.21;100.00;98807.09;5060567;28;21018;-63
2023/02/10 03:07:29;;;;;;;36.27;26.50;;;;;;;-9.21;100.00;98812.22;5065689;28;20668;-63
2023/02/10 03:09:56;;;;;;;33.20;25.63;;;;;;;-9.20;100.00;98811.34;5058957;28;20757;-65
2023/02/10 03:12:24;;;;;;;34.67;26.23;;;;;;;-9.15;100.00;98807.00;5068599;28;20471;-65
2023/02/10 03:14:51;;;;;;;31.90;25.37;;;;;;;-9.32;100.00;98804.66;5044720;28;20440;-63
2023/02/10 03:17:19;;;;;;;39.63;28.27;;;;;;;-9.33;100.00;98808.94;5018039;28;20575;-65
2023/02/10 03:19:48;;;;;;;35.87;26.03;;;;;;;-9.36;100.00;98808.13;5062786;28;20448;-63
2023/02/10 03:22:15;;;;;;;36.97;27.20;;;;;;;-9.33;100.00;98811.50;5058537;28;20490;-65
2023/02/10 03:24:43;;;;;;;35.53;26.93;;;;;;;-9.31;100.00;98811.47;5062276;28;20440;-64
2023/02/10 03:27:11;;;;;;;35.27;26.53;;;;;;;-9.36;100.00;98816.66;5064899;28;21030;-65
2023/02/10 03:29:38;;;;;;;36.27;26.33;;;;;;;-9.39;100.00;98815.88;5067869;28;20447;-63
2023/02/10 03:32:06;;;;;;;37.00;26.60;;;;;;;-9.36;100.00;98813.25;5002450;28;21786;-65
2023/02/10 03:34:34;;;;;;;37.00;26.83;;;;;;;-9.35;100.00;98815.78;5067249;28;20824;-62
2023/02/10 03:37:03;;;;;;;37.63;27.07;;;;;;;-9.41;100.00;98810.75;5057541;28;20459;-65
2023/02/10 03:39:31;;;;;;;34.60;25.87;;;;;;;-9.45;100.00;98819.34;5067988;28;20923;-62
2023/02/10 03:41:58;;;;;;;34.83;26.83;;;;;;;-9.54;100.00;98822.03;5064192;28;20745;-65
2023/02/10 03:44:26;;;;;;;37.83;26.40;;;;;;;-9.60;100.00;98822.94;5065859;28;20440;-66
2023/02/10 03:46:53;;;;;;;37.00;25.43;;;;;;;-9.60;100.00;98828.94;4994285;28;21824;-64
2023/02/10 03:49:21;;;;;;;39.47;27.70;;;;;;;-9.58;100.00;98828.91;5067662;28;20537;-62
2023/02/10 03:51:49;;;;;;;37.53;26.30;;;;;;;-9.45;100.00;98829.63;5058757;28;20855;-63
2023/02/10 03:54:18;;;;;;;42.80;26.20;;;;;;;-9.46;100.00;98841.63;5069053;28;20451;-65
2023/02/10 03:56:45;;;;;;;40.53;28.07;;;;;;;-9.47;100.00;98837.34;5063056;28;20459;-63
2023/02/10 03:59:13;;;;;;;33.00;26.93;;;;;;;-9.47;100.00;98841.63;5067094;28;20450;-65
2023/02/10 04:01:40;;;;;;;35.00;25.90;;;;;;;-9.61;100.00;98845.22;5039675;28;20489;-63
2023/02/10 04:04:08;;;;;;;35.73;26.20;;;;;;;-9.69;100.00;98844.41;5048083;28;20592;-66
2023/02/10 04:06:36;;;;;;;37.10;27.97;;;;;;;-9.70;100.00;98853.00;5050803;28;20456;-64
2023/02/10 04:09:05;;;;;;;34.60;25.70;;;;;;;-9.70;100.00;98854.72;5042471;28;20813;-66
2023/02/10 04:11:34;;;;;;;34.83;26.40;;;;;;;-9.71;100.00;98848.72;5066075;28;20820;-63
2023/02/10 04:14:01;;;;;;;37.60;26.57;;;;;;;-9.76;100.00;98853.91;5064874;28;20448;-65
2023/02/10 04:16:30;;;;;;;35.63;26.70;;;;;;;-9.82;100.00;98850.56;5037882;28;20495;-63
2023/02/10 04:18:57;;;;;;;37.73;25.83;;;;;;;-9.75;100.00;98844.50;5019916;28;20463;-63
2023/02/10 04:21:25;;;;;;;42.53;28.47;;;;;;;-9.77;100.00;98846.22;5039925;28;20481;-65
2023/02/10 04:23:52;;;;;;;41.13;26.80;;;;;;;-9.88;100.00;98826.69;5060122;28;20453;-65
2023/02/10 04:26:20;;;;;;;38.73;26.27;;;;;;;-9.75;100.00;98837.66;5059606;28;20486;-64
2023/02/10 04:28:49;;;;;;;38.60;27.70;;;;;;;-9.76;100.00;98840.22;5065149;28;20451;-66
2023/02/10 04:31:17;;;;;;;38.33;28.00;;;;;;;-9.71;100.00;98843.59;5066994;28;20476;-64
2023/02/10 04:33:45;;;;;;;41.70;28.47;;;;;;;-9.78;100.00;98835.13;5026409;28;26629;-64
2023/02/10 04:36:12;;;;;;;42.37;30.33;;;;;;;-9.77;100.00;98838.53;5068156;28;20492;-65
2023/02/10 04:38:40;;;;;;;39.93;28.50;;;;;;;-9.75;100.00;98832.53;5059907;28;21244;-64
2023/02/10 04:41:08;;;;;;;38.47;28.10;;;;;;;-9.74;100.00;98835.94;5072974;28;21252;-64
2023/02/10 04:43:35;;;;;;;39.87;27.97;;;;;;;-9.77;100.00;98831.69;5067675;28;20458;-66
2023/02/10 04:46:04;;;;;;;42.23;27.43;;;;;;;-9.78;100.00;98836.84;5068510;28;20467;-67
2023/02/10 04:48:32;;;;;;;40.43;27.83;;;;;;;-9.83;100.00;98842.03;5065945;28;20452;-64
2023/02/10 04:51:00;;;;;;;37.77;28.27;;;;;;;-9.90;100.00;98840.38;5029301;28;21543;-66
2023/02/10 04:53:27;;;;;;;41.27;29.87;;;;;;;-9.94;100.00;98854.97;5061755;28;20444;-64
2023/02/10 04:55:55;;;;;;;38.63;27.23;;;;;;;-9.91;100.00;98856.63;5068749;28;20464;-65
2023/02/10 04:58:22;;;;;;;40.17;27.80;;;;;;;-9.87;100.00;98850.59;5067738;28;20456;-64
2023/02/10 05:00:50;;;;;;;34.30;27.37;;;;;;;-9.81;100.00;98849.69;5066504;28;20462;-64
2023/02/10 05:03:19;;;;;;;41.37;28.43;;;;;;;-9.81;100.00;98850.56;5073514;28;20517;-64
2023/02/10 05:05:46;;;;;;;43.87;30.07;;;;;;;-9.83;100.00;98859.13;5024804;28;21897;-65
2023/02/10 05:08:14;;;;;;;38.30;28.90;;;;;;;-9.83;100.00;98872.81;5067737;28;20452;-64
2023/02/10 05:10:42;;;;;;;41.33;26.73;;;;;;;-9.86;100.00;98867.69;5065828;28;21281;-63
2023/02/10 05:13:09;;;;;;;36.00;28.20;;;;;;;-9.85;100.00;98876.25;5067576;28;20456;-65
2023/02/10 05:15:37;;;;;;;41.53;29.50;;;;;;;-9.85;100.00;98871.94;5067469;28;21231;-66
2023/02/10 05:18:05;;;;;;;40.97;28.67;;;;;;;-9.86;100.00;98866.84;5070666;28;20448;-64
2023/02/10 05:20:34;;;;;;;39.00;27.87;;;;;;;-9.89;100.00;98865.16;5064000;28;20556;-63
2023/02/10 05:23:01;;;;;;;37.23;27.27;;;;;;;-9.85;100.00;98868.56;5026081;28;21230;-65
2023/02/10 05:25:29;;;;;;;41.93;28.33;;;;;;;-9.86;100.00;98877.94;5066143;28;20448;-63
2023/02/10 05:27:56;;;;;;;36.40;26.87;;;;;;;-9.78;100.00;98878.75;5064725;28;20456;-64
2023/02/10 05:30:24;;;;;;;45.33;28.23;;;;;;;-9.79;100.00;98887.31;5062737;28;20464;-63
2023/02/10 05:32:52;;;;;;;38.00;28.10;;;;;;;-9.77;100.00;98887.28;5059017;28;20472;-64
2023/02/10 05:35:19;;;;;;;43.63;28.23;;;;;;;-9.85;100.00;98876.25;5069305;28;20471;-63
2023/02/10 05:37:48;;;;;;;39.67;28.10;;;;;;;-9.72;100.00;98890.63;5020640;28;20990;-65
2023/02/10 05:40:16;;;;;;;46.37;28.03;;;;;;;-9.62;100.00;98887.13;5070435;28;20464;-63
2023/02/10 05:42:43;;;;;;;40.03;27.93;;;;;;;-9.64;100.00;98890.56;5064167;28;20816;-63
2023/02/10 05:45:11;;;;;;;37.77;28.23;;;;;;;-9.67;100.00;98899.13;5066004;28;20457;-63
2023/02/10 05:47:38;;;;;;;39.03;27.30;;;;;;;-9.62;100.00;98915.38;5065538;28;20449;-62
2023/02/10 05:50:06;;;;;;;41.90;29.53;;;;;;;-9.66;100.00;98911.13;5061971;28;20467;-62
2023/02/10 05:52:34;;;;;;;40.23;29.13;;;;;;;-9.69;100.00;98903.44;5064361;28;20464;-65
2023/02/10 05:55:03;;;;;;;41.43;27.73;;;;;;;-9.72;100.00;98911.16;5028914;28;20463;-64
2023/02/10 05:57:31;;;;;;;49.00;29.83;;;;;;;-9.71;100.00;98915.44;5061255;28;21370;-65
2023/02/10 05:59:58;;;;;;;42.23;28.50;;;;;;;-9.69;100.00;98911.13;5073963;28;20447;-64
2023/02/10 06:02:26;;;;;;;37.47;28.73;;;;;;;-9.71;100.00;98910.31;5057946;28;20575;-65
2023/02/10 06:04:53;;;;;;;40.20;28.77;;;;;;;-9.68;100.00;98915.41;5061643;28;20531;-65
2023/02/10 06:07:21;;;;;;;45.00;29.03;;;;;;;-9.61;100.00;98923.91;5061602;28;20452;-65
2023/02/10 06:09:49;;;;;;;40.33;28.97;;;;;;;-9.62;100.00;98928.19;5005380;28;20468;-67
2023/02/10 06:12:19;;;;;;;37.83;28.93;;;;;;;-9.64;100.00;98927.38;5064680;28;20473;-64
2023/02/10 06:14:46;;;;;;;42.60;29.03;;;;;;;-9.65;100.00;98924.78;5064482;28;20461;-66
2023/02/10 06:17:14;;;;;;;44.13;29.43;;;;;;;-9.64;100.00;98929.06;5036741;28;20510;-66
2023/02/10 06:19:41;;;;;;;37.83;28.30;;;;;;;-9.67;100.00;98931.66;5058422;28;20460;-63
2023/02/10 06:22:10;;;;;;;40.27;27.67;;;;;;;-9.70;100.00;98927.41;5033499;28;20970;-64
2023/02/10 06:24:38;;;;;;;38.90;28.60;;;;;;;-9.68;100.00;98935.09;5021256;28;20733;-64
2023/02/10 06:27:06;;;;;;;42.60;30.07;;;;;;;-9.72;100.00;98928.28;5063560;28;20560;-62
2023/02/10 06:29:35;;;;;;;43.90;29.57;;;;;;;-9.68;100.00;98933.38;5069463;28;20456;-65
2023/02/10 06:32:03;;;;;;;45.50;32.27;;;;;;;-9.67;100.00;98936.78;5064938;28;20744;-63
2023/02/10 06:34:30;;;;;;;47.57;31.17;;;;;;;-9.65;100.00;98928.22;5071006;28;21243;-66
2023/02/10 06:36:58;;;;;;;45.57;30.73;;;;;;;-9.68;100.00;98946.19;5035116;28;20821;-66
2023/02/10 06:39:25;;;;;;;48.70;31.10;;;;;;;-9.69;100.00;98944.50;5027928;28;21045;-67
2023/02/10 06:41:53;;;;;;;47.47;30.87;;;;;;;-9.70;100.00;98949.66;5063156;28;20487;-64
2023/02/10 06:44:20;;;;;;;43.73;30.00;;;;;;;-9.64;100.00;98950.47;5065814;28;20456;-66
2023/02/10 06:46:49;;;;;;;69.60;42.93;;;;;;;-9.61;100.00;98960.69;5058667;28;20461;-65
2023/02/10 06:49:17;;;;;;;54.27;38.73;;;;;;;-9.65;100.00;98961.59;5065197;28;20967;-67
2023/02/10 06:51:45;;;;;;;51.50;35.37;;;;;;;-9.72;100.00;98962.47;5041208;28;20490;-64
2023/02/10 06:54:12;;;;;;;41.80;29.83;;;;;;;-9.76;100.00;98956.53;5009690;28;21739;-67
2023/02/10 06:56:41;;;;;;;48.83;32.60;;;;;;;-9.75;100.00;98963.38;5067865;28;20466;-63
2023/02/10 06:59:09;;;;;;;42.27;31.43;;;;;;;-9.78;100.00;98978.81;5063185;28;20692;-67
2023/02/10 07:01:37;;;;;;;42.93;30.67;;;;;;;-9.72;100.00;98977.88;5066653;28;20473;-65
2023/02/10 07:04:06;;;;;;;51.17;34.17;;;;;;;-9.72;100.00;98972.75;5067208;28;20862;-66
2023/02/10 07:06:34;;;;;;;43.83;32.03;;;;;;;-9.65;100.00;98973.56;5065223;28;20457;-66
2023/02/10 07:09:03;;;;;;;46.30;31.87;;;;;;;-9.58;100.00;98984.63;5032672;28;20561;-67
2023/02/10 07:11:31;;;;;;;45.53;32.57;;;;;;;-9.58;100.00;98982.06;5023868;28;20567;-64
2023/02/10 07:13:59;;;;;;;43.10;32.13;;;;;;;-9.54;100.00;98992.25;5063156;28;20545;-68
2023/02/10 07:16:28;;;;;;;50.50;32.37;;;;;;;-9.47;100.00;98995.63;5063071;28;20974;-66
2023/02/10 07:18:55;;;;;;;41.00;31.27;;;;;;;-9.32;100.00;98997.22;5056360;28;20480;-63
2023/02/10 07:21:24;;;;;;;41.47;30.13;;;;;;;-9.35;100.00;98992.09;5062093;28;20696;-67
2023/02/10 07:23:52;;;;;;;45.03;28.53;;;;;;;-9.39;100.00;98998.97;5032457;28;20479;-64
2023/02/10 07:26:19;;;;;;;39.67;29.03;;;;;;;-9.34;100.00;99004.06;5022630;28;21000;-65
2023/02/10 07:28:47;;;;;;;39.53;31.77;;;;;;;-9.27;100.00;99002.31;5065183;28;20970;-64
2023/02/10 07:31:15;;;;;;;48.50;33.30;;;;;;;-9.20;100.00;98996.25;5065997;28;20468;-68
2023/02/10 07:33:43;;;;;;;41.23;29.60;;;;;;;-9.12;100.00;98998.69;5067753;28;20488;-64
2023/02/10 07:36:10;;;;;;;40.77;31.33;;;;;;;-8.95;100.00;98993.38;5065625;28;20570;-64
2023/02/10 07:38:39;;;;;;;38.33;27.97;;;;;;;-8.85;100.00;98992.44;5049721;28;21015;-62
2023/02/10 07:41:07;;;;;;;41.07;30.73;;;;;;;-8.70;100.00;99008.53;5049718;28;20564;-67
2023/02/10 07:43:35;;;;;;;46.93;32.33;;;;;;;-8.55;100.00;99015.19;5017633;28;20955;-65
2023/02/10 07:46:03;;;;;;;51.43;32.90;;;;;;;-8.55;100.00;99010.06;5062106;28;20459;-64
2023/02/10 07:48:31;;;;;;;45.27;33.03;;;;;;;-8.41;100.00;99009.84;5066757;28;20452;-65
2023/02/10 07:50:58;;;;;;;48.47;32.00;;;;;;;-8.39;100.00;99008.09;5056749;28;20582;-67
2023/02/10 07:53:26;;;;;;;48.33;33.03;;;;;;;-8.33;100.00;99010.59;5039433;28;20460;-66
2023/02/10 07:55:55;;;;;;;41.27;31.47;;;;;;;-8.19;100.00;99000.94;5038481;28;20464;-64
2023/02/10 07:58:22;;;;;;;51.50;35.33;;;;;;;-8.07;100.00;98999.09;5036046;28;20471;-67
2023/02/10 08:00:50;;;;;;;47.90;31.27;;;;;;;-8.00;100.00;98996.38;5068802;28;20472;-64
2023/02/10 08:03:18;;;;;;;47.87;33.40;;;;;;;-7.93;100.00;98999.72;5073623;28;20475;-66
2023/02/10 08:05:47;;;;;;;43.23;32.63;;;;;;;-7.82;100.00;99009.00;5067463;28;20447;-65
2023/02/10 08:08:16;;;;;;;49.03;34.03;;;;;;;-7.75;100.00;99013.19;5047574;28;20493;-64
2023/02/10 08:10:43;;;;;;;53.53;35.73;;;;;;;-7.66;100.00;98996.72;5055980;28;20990;-64
2023/02/10 08:13:12;;;;;;;52.53;36.87;;;;;;;-7.41;100.00;99005.75;5021113;28;22292;-68
2023/02/10 08:15:39;;;;;;;51.70;36.60;;;;;;;-7.29;100.00;99011.56;5068772;28;20627;-65
2023/02/10 08:18:07;;;;;;;49.03;35.93;;;;;;;-7.14;100.00;99018.16;5066092;28;20452;-67
2023/02/10 08:20:35;;;;;;;54.10;36.70;;;;;;;-6.97;100.00;99015.28;5073579;28;20452;-64
2023/02/10 08:23:03;;;;;;;53.63;37.73;;;;;;;-6.90;100.00;99000.56;5062052;28;21022;-62
2023/02/10 08:25:30;;;;;;;55.90;35.37;;;;;;;-6.63;100.00;99011.19;5051339;28;20464;-65
2023/02/10 08:27:58;;;;;;;52.50;36.37;;;;;;;-6.43;100.00;99019.38;5050892;28;20447;-64
2023/02/10 08:30:27;;;;;;;53.03;38.10;;;;;;;-6.36;100.00;99019.25;5023763;28;20461;-65
2023/02/10 08:32:55;;;;;;;58.27;38.93;;;;;;;-6.25;100.00;99019.84;5063346;28;20452;-65
2023/02/10 08:35:23;;;;;;;55.23;36.97;;;;;;;-6.25;100.00;99031.03;5069685;28;20460;-63
2023/02/10 08:37:50;;;;;;;50.83;35.17;;;;;;;-6.10;100.00;99031.56;5066530;28;20810;-63
2023/02/10 08:40:19;;;;;;;55.47;37.13;;;;;;;-6.05;100.00;99029.75;5049270;28;20452;-66
2023/02/10 08:42:46;;;;;;;55.23;36.93;;;;;;;-6.00;100.00;99022.72;5056878;28;20463;-62
2023/02/10 08:45:14;;;;;;;50.07;36.80;;;;;;;-5.81;100.00;99033.47;5027020;28;20484;-65
2023/02/10 08:47:42;;;;;;;56.37;40.03;;;;;;;-5.69;100.00;99032.31;5066331;28;20457;-62
2023/02/10 08:50:10;;;;;;;52.13;37.43;;;;;;;-5.57;100.00;99030.34;5068130;28;20479;-64
2023/02/10 08:52:38;;;;;;;55.23;38.57;;;;;;;-5.43;100.00;99036.03;5064206;28;20234;-62
2023/02/10 08:55:07;;;;;;;52.33;39.87;;;;;;;-5.41;100.00;99038.56;5049726;28;21187;-63
2023/02/10 08:57:36;;;;;;;51.67;36.27;;;;;;;-5.36;100.00;99044.47;5054632;28;20470;-63
2023/02/10 09:00:04;;;;;;;53.57;37.40;;;;;;;-5.20;100.00;99028.56;5020934;28;21561;-63
2023/02/10 09:02:32;;;;;;;51.40;37.33;;;;;;;-5.04;100.00;99042.81;5070432;28;20465;-62
2023/02/10 09:05:01;;;;;;;47.07;34.37;;;;;;;-4.96;100.00;99052.94;5059948;28;21218;-63
2023/02/10 09:07:37;;;;;;;50.87;35.27;;;;;;;-5.09;100.00;99035.16;5065355;28;20452;-62
2023/02/10 09:10:05;;;;;;;46.80;35.40;;;;;;;-4.85;100.00;99042.31;5045099;28;21512;-65
2023/02/10 09:12:33;;;;;;;50.13;35.73;;;;;;;-4.80;100.00;99043.91;5063560;28;21045;-63
2023/02/10 09:15:01;;;;;;;49.43;35.47;;;;;;;-4.72;100.00;99045.41;4996069;28;21251;-63
2023/02/10 09:17:28;;;;;;;47.27;37.20;;;;;;;-4.65;100.00;99042.63;5068985;28;20705;-64
2023/02/10 09:19:56;;;;;;;46.47;34.20;;;;;;;-4.58;100.00;99045.88;5063702;28;20453;-64
2023/02/10 09:22:24;;;;;;;45.40;35.33;;;;;;;-4.46;100.00;99034.34;5069315;28;20580;-63
2023/02/10 09:24:53;;;;;;;47.67;36.70;;;;;;;-4.42;100.00;99042.88;5072981;28;20476;-62
2023/02/10 09:27:21;;;;;;;46.07;34.77;;;;;;;-4.30;100.00;99042.50;5052601;28;20445;-65
2023/02/10 09:29:49;;;;;;;45.73;35.77;;;;;;;-4.27;100.00;99047.59;5053901;28;20509;-62
2023/02/10 09:32:17;;;;;;;40.00;32.73;;;;;;;-4.12;100.00;99046.31;5026045;28;20480;-65
2023/02/10 09:34:45;;;;;;;45.33;35.10;;;;;;;-3.99;100.00;99039.03;5070120;28;20449;-62
2023/02/10 09:37:12;;;;;;;42.90;33.77;;;;;;;-3.98;100.00;99042.44;5058460;28;20815;-64
2023/02/10 09:39:42;;;;;;;48.70;34.00;;;;;;;-3.76;100.00;99036.63;5063514;28;20199;-62
2023/02/10 09:42:15;;;;;;;42.70;33.37;;;;;;;-3.80;100.00;99034.13;5049545;28;20446;-63
2023/02/10 09:44:48;;;;;;;45.27;32.10;;;;;;;-3.48;100.00;99039.16;5063529;28;20476;-60
2023/02/10 09:47:29;;;;;;;47.37;35.10;;;;;;;-3.40;100.00;99034.59;5016655;28;20315;-64
2023/02/10 09:50:27;;;;;;;50.90;34.13;;;;;;;-3.24;100.00;99021.94;5069935;28;20205;-63
2023/02/10 09:53:03;;;;;;;46.97;34.33;;;;;;;-3.13;100.00;99031.97;5054575;28;20228;-61
2023/02/10 09:55:34;;;;;;;45.27;34.63;;;;;;;-3.20;100.00;99022.69;5066569;28;20220;-60
2023/02/10 09:58:06;;;;;;;43.33;33.40;;;;;;;-3.08;100.00;99024.03;5041044;28;20463;-65
2023/02/10 10:00:35;;;;;;;41.77;32.67;;;;;;;-3.00;100.00;99010.81;5063935;28;20205;-62
2023/02/10 10:03:06;;;;;;;44.17;34.63;;;;;;;-3.07;100.00;99020.53;5000657;28;21189;-65
2023/02/10 10:05:42;;;;;;;45.67;33.80;;;;;;;-2.92;100.00;99012.22;5072405;28;20660;-65
2023/02/10 10:08:18;;;;;;;46.77;36.07;;;;;;;-2.76;100.00;99012.53;5056975;28;20216;-66
2023/02/10 10:10:47;;;;;;;45.50;35.60;;;;;;;-2.80;100.00;99004.91;5069287;28;20210;-62
2023/02/10 10:13:16;;;;;;;44.83;35.83;;;;;;;-2.75;100.00;99013.38;5046559;28;20996;-64
2023/02/10 10:15:47;;;;;;;46.57;35.23;;;;;;;-2.66;100.00;99005.25;5060274;28;20209;-64
2023/02/10 10:18:21;;;;;;;52.53;36.83;;;;;;;-2.46;100.00;99014.09;5055503;28;20734;-65
2023/02/10 10:20:52;;;;;;;46.77;35.57;;;;;;;-2.30;100.00;99019.53;5021736;28;20221;-63
2023/02/10 10:23:32;;;;;;;41.53;34.23;;;;;;;-2.34;100.00;99025.75;5066006;28;20198;-65
2023/02/10 10:26:12;;;;;;;48.63;35.23;;;;;;;-2.17;100.00;99026.88;5064704;28;20366;-64
2023/02/10 10:28:50;;;;;;;44.57;33.63;;;;;;;-1.95;100.00;99025.13;5061320;28;20201;-63
2023/02/10 10:31:20;;;;;;;55.60;39.77;;;;;;;-2.03;100.00;99032.38;5062776;28;20226;-65
2023/02/10 10:33:51;;;;;;;41.70;33.23;;;;;;;-2.01;100.00;99027.97;5052100;28;20283;-63
2023/02/10 10:36:21;;;;;;;47.00;34.50;;;;;;;-1.80;100.00;99022.84;5015242;28;20199;-63
2023/02/10 10:38:51;;;;;;;43.17;34.67;;;;;;;-1.63;100.00;99022.19;5065845;28;20232;-61
2023/02/10 10:41:24;;;;;;;47.93;35.27;;;;;;;-1.46;100.00;99024.09;5070160;28;20227;-64
2023/02/10 10:43:54;;;;;;;47.10;35.60;;;;;;;-1.24;99.24;99024.06;5050051;28;20213;-62
2023/02/10 10:46:25;;;;;;;45.97;35.70;;;;;;;-1.53;96.04;99025.25;5066609;28;20595;-62
2023/02/10 10:48:52;;;;;;;44.90;34.33;;;;;;;-1.39;97.37;99015.13;5052813;28;20460;-62
2023/02/10 10:51:20;;;;;;;40.77;33.70;;;;;;;-1.14;96.92;99008.06;5015515;28;20748;-64
2023/02/10 10:53:49;;;;;;;44.10;34.13;;;;;;;-1.04;95.41;99001.53;5067165;28;20225;-62
2023/02/10 10:56:24;;;;;;;45.43;33.63;;;;;;;-0.93;94.26;99004.56;5070977;28;20206;-64
2023/02/10 10:58:52;;;;;;;44.03;33.20;;;;;;;-0.79;93.53;98998.72;5063121;28;20217;-61
2023/02/10 11:01:33;;;;;;;38.57;32.27;;;;;;;-0.68;92.75;99005.22;5044920;28;20233;-62
2023/02/10 11:04:11;;;;;;;54.10;41.43;;;;;;;-0.54;91.87;98999.41;5049365;28;20209;-64
2023/02/10 11:06:40;;;;;;;42.50;32.10;;;;;;;-0.45;90.21;98997.22;5014882;28;20417;-62
2023/02/10 11:09:19;;;;;;;38.60;34.30;;;;;;;-0.32;89.29;98994.06;5063453;28;20233;-61
2023/02/10 11:11:48;;;;;;;39.17;33.13;;;;;;;-0.41;88.02;98997.94;5062892;28;20241;-62
2023/02/10 11:14:18;;;;;;;41.40;33.13;;;;;;;-0.33;88.35;98989.78;5069466;28;20211;-63
2023/02/10 11:16:48;;;;;;;37.13;31.43;;;;;;;-0.22;87.67;98984.06;5045574;28;20602;-62
2023/02/10 11:19:21;;;;;;;41.47;32.53;;;;;;;-0.22;87.35;98989.25;5052566;28;20219;-64